Time;durP1;ratioP1;P1;durP2;ratioP2;P2;SDS_P1;SDS_P2;PMS_P1;PMS_P2;Temp;Humidity;BMP_temperature;BMP_pressure;BME280_temperature;BME280_humidity;BME280_pressure;Samples;Min_cycle;Max_cycle;Signal;HPM_P1;HPM_P2
2021/12/18 00:01:56;;;;;;;6.60;3.63;;;7.80;99.90;;;;;;5039574;28;20233;-71
2021/12/18 00:04:24;;;;;;;4.25;3.15;;;7.80;99.90;;;;;;5039127;28;20212;-71
2021/12/18 00:06:52;;;;;;;3.53;3.10;;;7.80;99.90;;;;;;5039380;28;20204;-71
2021/12/18 00:09:25;;;;;;;6.05;4.00;;;7.80;99.90;;;;;;5039214;28;20731;-71
2021/12/18 00:11:53;;;;;;;5.38;3.65;;;7.80;99.90;;;;;;5041800;28;20206;-71
2021/12/18 00:14:22;;;;;;;4.40;3.88;;;7.80;99.90;;;;;;5045927;28;20224;-71
2021/12/18 00:16:50;;;;;;;5.95;3.95;;;7.80;99.90;;;;;;5055807;28;20755;-72
2021/12/18 00:19:24;;;;;;;5.95;3.67;;;7.80;99.90;;;;;;5043562;28;20228;-67
2021/12/18 00:21:51;;;;;;;4.95;3.90;;;7.90;99.90;;;;;;5045919;28;20219;-67
2021/12/18 00:24:20;;;;;;;5.20;3.20;;;7.90;99.90;;;;;;5048166;28;20232;-70
2021/12/18 00:26:48;;;;;;;4.63;3.88;;;7.90;99.90;;;;;;5046493;28;20253;-69
2021/12/18 00:29:17;;;;;;;5.18;3.63;;;7.90;99.90;;;;;;5040024;28;20284;-71
2021/12/18 00:31:46;;;;;;;4.10;3.10;;;7.90;99.90;;;;;;5040781;28;20208;-71
2021/12/18 00:34:14;;;;;;;7.43;3.90;;;7.80;99.90;;;;;;5038594;28;20197;-71
2021/12/18 00:36:41;;;;;;;4.90;4.07;;;7.80;99.90;;;;;;5038813;28;20284;-71
2021/12/18 00:39:10;;;;;;;5.65;4.35;;;7.80;99.90;;;;;;5038866;28;20817;-70
2021/12/18 00:41:49;;;;;;;4.25;3.45;;;7.80;99.90;;;;;;5038746;28;20204;-71
2021/12/18 00:44:17;;;;;;;7.07;4.07;;;7.80;99.90;;;;;;5038700;28;20309;-68
2021/12/18 00:46:47;;;;;;;7.63;4.75;;;7.90;99.90;;;;;;5038530;28;20204;-68
2021/12/18 00:49:18;;;;;;;6.40;4.75;;;7.90;99.90;;;;;;5038412;28;20415;-71
2021/12/18 00:51:47;;;;;;;6.60;4.78;;;7.90;99.90;;;;;;5038434;28;20206;-66
2021/12/18 00:54:15;;;;;;;9.88;5.07;;;7.90;99.90;;;;;;5038579;28;20204;-72
2021/12/18 00:56:43;;;;;;;6.68;4.88;;;7.90;99.90;;;;;;5038814;28;20202;-73
2021/12/18 00:59:11;;;;;;;9.45;5.32;;;8.00;99.90;;;;;;5038597;28;20210;-73
2021/12/18 01:01:39;;;;;;;7.82;4.68;;;7.90;99.90;;;;;;5038498;28;20212;-72
2021/12/18 01:04:08;;;;;;;5.65;4.28;;;7.90;99.90;;;;;;5038189;28;20212;-72
2021/12/18 01:06:36;;;;;;;7.88;4.82;;;7.90;99.90;;;;;;5045135;28;20245;-71
2021/12/18 01:09:04;;;;;;;8.05;5.40;;;7.90;99.90;;;;;;5059030;28;20197;-70
2021/12/18 01:11:35;;;;;;;7.88;4.65;;;7.90;99.90;;;;;;5042955;28;20271;-71
2021/12/18 01:14:26;;;;;;;6.30;4.45;;;7.90;99.90;;;;;;5038514;28;20695;-70
2021/12/18 01:22:40;;;;;;;6.03;3.95;;;7.90;99.90;;;;;;5038366;28;20211;-72
2021/12/18 01:22:49;;;;;;;3.63;3.30;;;7.90;99.90;;;;;;5038032;28;20200;-71
2021/12/18 01:25:20;;;;;;;4.10;3.20;;;7.90;99.90;;;;;;5037573;28;20223;-72
2021/12/18 01:27:48;;;;;;;5.20;3.42;;;7.90;99.90;;;;;;5038331;28;20197;-72
2021/12/18 01:30:19;;;;;;;5.72;3.25;;;7.90;99.90;;;;;;5038316;28;20200;-72
2021/12/18 01:32:47;;;;;;;5.05;3.40;;;7.90;99.90;;;;;;5038222;28;20209;-71
2021/12/18 01:35:17;;;;;;;4.18;3.17;;;7.80;99.90;;;;;;5037347;28;20758;-70
2021/12/18 01:37:46;;;;;;;4.18;2.30;;;7.80;99.90;;;;;;5037656;28;20212;-70
2021/12/18 01:40:14;;;;;;;2.60;2.40;;;7.80;99.90;;;;;;5037988;28;20225;-70
2021/12/18 01:45:41;;;;;;;4.32;3.30;;;7.80;99.90;;;;;;5036708;28;20708;-70
2021/12/18 01:51:17;;;;;;;6.68;4.03;;;7.80;99.90;;;;;;5038227;28;20289;-71
2021/12/18 01:53:46;;;;;;;6.25;4.35;;;7.90;99.90;;;;;;5037600;28;20206;-71
2021/12/18 01:56:14;;;;;;;6.30;5.15;;;7.90;99.90;;;;;;5038114;28;20232;-71
2021/12/18 01:58:44;;;;;;;9.25;5.65;;;7.90;99.90;;;;;;5037700;28;20216;-71
2021/12/18 02:01:13;;;;;;;8.48;6.00;;;7.90;99.90;;;;;;5037683;28;20221;-71
2021/12/18 02:03:41;;;;;;;11.27;6.07;;;7.90;99.90;;;;;;5037440;28;20862;-71
2021/12/18 02:06:11;;;;;;;12.93;7.78;;;7.90;99.90;;;;;;5037818;28;20222;-71
2021/12/18 02:08:39;;;;;;;13.80;7.70;;;7.90;99.90;;;;;;5037189;28;20679;-69
2021/12/18 02:11:17;;;;;;;14.13;6.90;;;7.90;99.90;;;;;;5037983;28;20296;-71
2021/12/18 02:19:47;;;;;;;11.75;5.40;;;7.80;99.90;;;;;;5037447;28;20213;-71
2021/12/18 02:22:17;;;;;;;13.75;6.45;;;7.80;99.90;;;;;;5037983;28;20213;-71
2021/12/18 02:24:45;;;;;;;17.42;6.30;;;7.80;99.90;;;;;;5037530;28;20230;-72
2021/12/18 02:27:13;;;;;;;10.40;5.35;;;7.80;99.90;;;;;;5037506;28;20198;-71
2021/12/18 02:29:42;;;;;;;9.18;5.55;;;7.80;99.90;;;;;;5037102;28;20202;-72
2021/12/18 02:32:12;;;;;;;12.60;6.07;;;7.80;99.90;;;;;;5040563;28;20805;-72
2021/12/18 02:34:41;;;;;;;14.82;6.55;;;7.80;99.90;;;;;;5040957;28;20339;-72
2021/12/18 02:37:12;;;;;;;11.45;5.30;;;7.80;99.90;;;;;;5040734;28;20208;-73
2021/12/18 02:39:56;;;;;;;10.80;5.85;;;7.80;99.90;;;;;;5040871;28;20221;-72
2021/12/18 02:42:24;;;;;;;9.95;5.20;;;7.80;99.90;;;;;;5041295;28;20703;-71
2021/12/18 02:44:52;;;;;;;10.30;4.20;;;7.80;99.90;;;;;;5040894;28;20226;-73
2021/12/18 02:47:20;;;;;;;9.25;5.03;;;7.90;99.90;;;;;;5041047;28;20201;-72
2021/12/18 02:49:51;;;;;;;15.07;6.38;;;7.90;99.90;;;;;;5040936;28;20197;-72
2021/12/18 02:52:19;;;;;;;12.50;6.07;;;7.90;99.90;;;;;;5040673;28;20201;-72
2021/12/18 02:54:48;;;;;;;8.55;4.60;;;8.00;99.90;;;;;;5040704;28;20232;-71
2021/12/18 02:57:16;;;;;;;10.40;5.50;;;8.00;99.90;;;;;;5041091;28;20285;-72
2021/12/18 02:59:46;;;;;;;8.18;5.05;;;8.00;99.90;;;;;;5040624;28;20308;-72
2021/12/18 03:02:15;;;;;;;9.02;4.93;;;8.10;99.90;;;;;;5040579;28;20206;-71
2021/12/18 03:04:47;;;;;;;9.18;4.53;;;8.10;99.90;;;;;;5042126;28;20230;-70
2021/12/18 03:07:17;;;;;;;8.55;5.00;;;8.10;99.90;;;;;;5041091;28;20728;-71
2021/12/18 03:18:58;;;;;;;10.10;4.80;;;8.10;99.90;;;;;;5041798;28;20204;-71
2021/12/18 03:21:45;;;;;;;9.82;5.40;;;8.00;99.90;;;;;;5040511;28;20319;-74
2021/12/18 03:24:09;;;;;;;12.20;5.68;;;8.00;99.90;;;;;;5039945;28;20204;-73
2021/12/18 03:26:37;;;;;;;10.70;5.55;;;7.90;99.90;;;;;;5040484;28;20225;-73
2021/12/18 03:29:06;;;;;;;8.02;5.05;;;7.90;99.90;;;;;;5040185;28;20204;-74
2021/12/18 03:31:35;;;;;;;9.73;5.65;;;7.90;99.90;;;;;;5040352;28;20198;-74
2021/12/18 03:34:03;;;;;;;12.93;6.07;;;7.90;99.90;;;;;;5039943;28;20240;-74
2021/12/18 03:36:31;;;;;;;8.85;4.80;;;7.90;99.90;;;;;;5040126;28;20222;-74
2021/12/18 03:39:00;;;;;;;7.82;4.85;;;7.90;99.90;;;;;;5053516;28;20473;-73
2021/12/18 03:41:27;;;;;;;11.73;6.13;;;7.90;99.90;;;;;;5064788;28;20228;-74
2021/12/18 03:43:55;;;;;;;9.55;5.03;;;7.90;99.90;;;;;;5040348;28;20208;-73
2021/12/18 03:46:25;;;;;;;8.00;4.72;;;7.90;99.90;;;;;;5040473;28;20317;-73
2021/12/18 03:48:53;;;;;;;12.02;6.07;;;7.90;99.90;;;;;;5039779;28;20209;-73
2021/12/18 03:51:21;;;;;;;9.65;5.68;;;7.90;99.90;;;;;;5040098;28;20198;-73
2021/12/18 03:53:48;;;;;;;12.98;6.18;;;7.90;99.90;;;;;;5039368;28;20289;-73
2021/12/18 03:56:17;;;;;;;11.38;6.97;;;7.90;99.90;;;;;;5039615;28;20308;-73
2021/12/18 03:58:45;;;;;;;11.93;6.22;;;7.90;99.90;;;;;;5039892;28;20224;-73
2021/12/18 04:01:13;;;;;;;8.38;4.88;;;7.90;99.90;;;;;;5039501;28;20224;-73
2021/12/18 04:03:42;;;;;;;10.43;5.20;;;7.90;99.90;;;;;;5039843;28;20208;-73
2021/12/18 04:06:10;;;;;;;7.85;4.35;;;8.00;99.90;;;;;;5039869;28;20340;-73
2021/12/18 04:08:38;;;;;;;7.32;4.50;;;8.00;99.90;;;;;;5039067;28;20899;-73
2021/12/18 04:11:07;;;;;;;7.47;4.70;;;8.00;99.90;;;;;;5040100;28;20208;-73
2021/12/18 04:13:34;;;;;;;7.97;4.40;;;8.00;99.90;;;;;;5039890;28;20198;-73
2021/12/18 04:16:03;;;;;;;8.45;4.72;;;8.00;99.90;;;;;;5039109;28;20221;-73
2021/12/18 04:18:31;;;;;;;7.55;4.20;;;8.00;99.90;;;;;;5039707;28;20201;-75
2021/12/18 04:21:00;;;;;;;10.32;4.80;;;8.00;99.90;;;;;;5039000;28;20581;-74
2021/12/18 04:23:28;;;;;;;8.02;3.22;;;8.00;99.90;;;;;;5039371;28;20301;-74
2021/12/18 04:25:56;;;;;;;4.97;3.50;;;8.00;99.90;;;;;;5039850;28;20213;-72
2021/12/18 04:28:24;;;;;;;3.65;3.15;;;7.90;99.90;;;;;;5039322;28;20279;-72
2021/12/18 04:30:52;;;;;;;3.80;2.63;;;7.90;99.90;;;;;;5041651;28;20202;-72
2021/12/18 04:33:20;;;;;;;6.75;4.30;;;7.90;99.90;;;;;;5041119;28;20695;-73
2021/12/18 04:35:48;;;;;;;7.32;3.80;;;7.90;99.90;;;;;;5042075;28;20231;-72
2021/12/18 04:38:17;;;;;;;7.75;5.03;;;8.00;99.90;;;;;;5041474;28;20205;-72
2021/12/18 04:40:45;;;;;;;7.75;4.60;;;8.00;99.90;;;;;;5040327;28;20209;-72
2021/12/18 04:43:13;;;;;;;12.18;4.88;;;8.00;99.90;;;;;;5038711;28;20638;-70
2021/12/18 04:45:41;;;;;;;11.77;6.20;;;8.00;99.90;;;;;;5038851;28;20217;-72
2021/12/18 04:48:09;;;;;;;8.10;5.28;;;7.90;99.90;;;;;;5038881;28;20208;-71
2021/12/18 04:50:37;;;;;;;10.10;5.93;;;7.90;99.90;;;;;;5038594;28;20207;-72
2021/12/18 04:53:04;;;;;;;9.55;6.03;;;7.80;99.90;;;;;;5038000;28;20206;-72
2021/12/18 04:55:34;;;;;;;6.65;4.78;;;7.80;99.90;;;;;;5038712;28;20225;-72
2021/12/18 04:58:02;;;;;;;7.68;3.70;;;7.80;99.90;;;;;;5039011;28;20206;-72
2021/12/18 05:00:37;;;;;;;5.40;3.90;;;7.80;99.90;;;;;;5038539;28;20228;-72
2021/12/18 05:03:08;;;;;;;4.55;3.53;;;7.80;99.90;;;;;;5038275;28;20263;-72
2021/12/18 05:05:36;;;;;;;3.50;2.65;;;7.70;99.90;;;;;;5038182;28;20309;-73
2021/12/18 05:08:04;;;;;;;4.60;3.28;;;7.70;99.90;;;;;;5038566;28;20208;-72
2021/12/18 05:10:34;;;;;;;3.03;2.60;;;7.70;99.90;;;;;;5038546;28;20202;-72
2021/12/18 05:13:02;;;;;;;4.00;2.78;;;7.70;99.90;;;;;;5038158;28;20202;-72
2021/12/18 05:15:30;;;;;;;3.00;2.55;;;7.70;99.90;;;;;;5038172;28;20737;-72
2021/12/18 05:17:58;;;;;;;2.75;2.53;;;7.80;99.90;;;;;;5038376;28;20198;-72
2021/12/18 05:20:25;;;;;;;4.60;3.38;;;7.80;99.90;;;;;;5037994;28;20205;-72
2021/12/18 05:22:53;;;;;;;4.68;3.30;;;7.80;99.90;;;;;;5038107;28;20858;-73
2021/12/18 05:25:21;;;;;;;5.05;3.40;;;7.80;99.90;;;;;;5037949;28;20252;-73
2021/12/18 05:27:50;;;;;;;3.20;2.45;;;7.70;99.90;;;;;;5038139;28;20241;-73
2021/12/18 05:30:18;;;;;;;3.80;2.70;;;7.80;99.90;;;;;;5037472;28;20205;-72
2021/12/18 05:32:46;;;;;;;4.50;2.40;;;7.70;99.90;;;;;;5038061;28;20729;-72
2021/12/18 05:35:16;;;;;;;3.92;2.50;;;7.70;99.90;;;;;;5037601;28;20221;-72
2021/12/18 05:37:47;;;;;;;4.53;3.15;;;7.70;99.90;;;;;;5038083;28;20202;-72
2021/12/18 05:40:17;;;;;;;2.65;2.45;;;7.70;99.90;;;;;;5038058;28;20204;-73
2021/12/18 05:42:48;;;;;;;1.70;1.60;;;7.60;99.90;;;;;;5038106;28;20213;-76
2021/12/18 05:45:18;;;;;;;2.53;2.33;;;7.70;99.90;;;;;;5037420;28;20221;-72
2021/12/18 05:47:46;;;;;;;1.83;1.25;;;7.70;99.90;;;;;;5038581;28;20288;-72
2021/12/18 05:50:17;;;;;;;1.65;1.55;;;7.70;99.90;;;;;;5042174;28;20230;-72
2021/12/18 05:52:47;;;;;;;2.13;1.83;;;7.70;99.90;;;;;;5038611;28;20201;-72
2021/12/18 05:55:15;;;;;;;1.98;1.48;;;7.70;99.90;;;;;;5038765;28;20220;-72
2021/12/18 05:57:43;;;;;;;4.03;2.70;;;7.70;99.90;;;;;;5038485;28;20202;-71
2021/12/18 06:00:12;;;;;;;4.20;3.25;;;7.70;99.90;;;;;;5040116;28;20201;-72
2021/12/18 06:02:41;;;;;;;5.80;4.72;;;7.70;99.90;;;;;;5038813;28;20316;-70
2021/12/18 06:05:10;;;;;;;6.40;5.20;;;7.60;99.90;;;;;;5040390;28;20252;-71
2021/12/18 06:07:52;;;;;;;7.68;5.85;;;7.50;99.90;;;;;;5042139;28;20203;-71
2021/12/18 06:10:21;;;;;;;7.47;6.05;;;7.50;99.90;;;;;;5053760;28;20198;-70
2021/12/18 06:12:49;;;;;;;5.57;4.78;;;7.50;99.90;;;;;;5063726;28;20198;-72
2021/12/18 06:15:17;;;;;;;5.35;4.85;;;7.40;99.90;;;;;;5043585;28;20230;-73
2021/12/18 06:17:46;;;;;;;6.30;5.10;;;7.40;99.90;;;;;;5042164;28;20204;-73
2021/12/18 06:20:14;;;;;;;7.88;5.30;;;7.30;99.90;;;;;;5042002;28;20198;-66
2021/12/18 06:22:42;;;;;;;11.35;5.57;;;7.30;99.90;;;;;;5041453;28;20309;-68
2021/12/18 06:25:10;;;;;;;7.32;5.68;;;7.30;99.90;;;;;;5041032;28;20236;-66
2021/12/18 06:27:38;;;;;;;8.02;6.30;;;7.30;99.90;;;;;;5041118;28;20731;-69
2021/12/18 06:30:09;;;;;;;6.60;5.05;;;7.40;99.90;;;;;;5040205;28;20296;-66
2021/12/18 06:32:37;;;;;;;4.60;4.15;;;7.50;99.90;;;;;;5040208;28;20194;-68
2021/12/18 06:35:09;;;;;;;5.15;3.83;;;7.50;99.90;;;;;;5040493;28;20209;-67
2021/12/18 06:37:37;;;;;;;3.78;3.38;;;7.50;99.90;;;;;;5040597;28;20201;-68
2021/12/18 06:40:06;;;;;;;3.65;2.38;;;7.60;99.90;;;;;;5040324;28;20190;-68
2021/12/18 06:42:39;;;;;;;2.20;2.00;;;7.50;99.90;;;;;;5040558;28;20381;-68
2021/12/18 06:45:07;;;;;;;2.60;2.40;;;7.50;99.90;;;;;;5040609;28;20280;-68
2021/12/18 06:47:35;;;;;;;3.05;2.85;;;7.40;99.90;;;;;;5040660;28;20190;-68
2021/12/18 06:50:06;;;;;;;2.60;2.40;;;7.40;99.90;;;;;;5040269;28;20843;-69
2021/12/18 06:52:34;;;;;;;4.25;3.03;;;7.40;99.90;;;;;;5040857;28;20196;-68
2021/12/18 06:55:03;;;;;;;3.35;2.25;;;7.40;99.90;;;;;;5037037;28;20236;-68
2021/12/18 06:57:31;;;;;;;4.22;2.60;;;7.40;99.90;;;;;;5040351;28;20225;-69
2021/12/18 07:00:00;;;;;;;3.72;2.55;;;7.40;99.90;;;;;;5040142;28;20189;-68
2021/12/18 07:02:27;;;;;;;3.53;2.97;;;7.40;99.90;;;;;;5039837;28;20233;-69
2021/12/18 07:04:55;;;;;;;3.85;3.05;;;7.40;99.90;;;;;;5039802;28;20241;-68
2021/12/18 07:07:24;;;;;;;5.22;3.30;;;7.40;99.90;;;;;;5037512;28;20200;-68
2021/12/18 07:09:52;;;;;;;4.68;3.22;;;7.50;99.90;;;;;;5039808;28;20186;-69
2021/12/18 07:12:20;;;;;;;6.10;3.63;;;7.50;99.90;;;;;;5039557;28;20190;-69
2021/12/18 07:14:48;;;;;;;3.40;2.90;;;7.50;99.90;;;;;;5039882;28;20221;-69
2021/12/18 07:17:16;;;;;;;3.90;2.97;;;7.50;99.90;;;;;;5039981;28;20190;-69
2021/12/18 07:19:44;;;;;;;3.50;2.92;;;7.50;99.90;;;;;;5039827;28;20202;-68
2021/12/18 07:22:11;;;;;;;4.35;3.10;;;7.50;99.90;;;;;;5040140;28;20222;-69
2021/12/18 07:24:41;;;;;;;4.72;3.65;;;7.50;99.90;;;;;;5039971;28;20213;-69
2021/12/18 07:27:09;;;;;;;5.85;3.90;;;7.40;99.90;;;;;;5039795;28;20636;-69
2021/12/18 07:29:36;;;;;;;6.55;4.43;;;7.40;99.90;;;;;;5039423;28;20425;-69
2021/12/18 07:32:05;;;;;;;7.45;5.20;;;7.40;99.90;;;;;;5039436;28;20289;-69
2021/12/18 07:34:52;;;;;;;7.15;5.05;;;7.40;99.90;;;;;;5039899;28;20229;-68
2021/12/18 07:37:22;;;;;;;9.95;6.53;;;7.40;99.90;;;;;;5039800;28;20233;-69
2021/12/18 07:39:51;;;;;;;8.00;6.00;;;7.40;99.90;;;;;;5039793;28;20201;-66
2021/12/18 07:42:19;;;;;;;11.60;6.93;;;7.40;99.90;;;;;;5040243;28;20221;-67
2021/12/18 07:44:47;;;;;;;12.05;6.85;;;7.40;99.90;;;;;;5039664;28;20222;-67
2021/12/18 07:47:15;;;;;;;10.35;6.97;;;7.40;99.90;;;;;;5039831;28;20207;-66
2021/12/18 07:49:43;;;;;;;10.75;5.90;;;7.50;99.90;;;;;;5039792;28;20213;-68
2021/12/18 07:52:12;;;;;;;9.85;5.30;;;7.50;99.90;;;;;;5039792;28;20879;-68
2021/12/18 07:54:40;;;;;;;7.30;5.90;;;7.60;99.90;;;;;;5039855;28;20226;-68
2021/12/18 07:57:10;;;;;;;9.90;5.60;;;7.60;99.90;;;;;;5040243;28;20206;-68
2021/12/18 07:59:38;;;;;;;10.48;4.72;;;7.50;99.90;;;;;;5039611;28;20204;-68
2021/12/18 08:02:06;;;;;;;9.27;5.28;;;7.60;99.90;;;;;;5039434;28;20200;-67
2021/12/18 08:04:34;;;;;;;7.68;4.25;;;7.60;99.90;;;;;;5039384;28;20191;-68
2021/12/18 08:07:03;;;;;;;8.90;4.60;;;7.60;99.90;;;;;;5039577;28;20204;-69
2021/12/18 08:09:32;;;;;;;6.28;4.40;;;7.60;99.90;;;;;;5038966;28;20212;-69
2021/12/18 08:12:00;;;;;;;7.38;4.78;;;7.60;99.90;;;;;;5038526;28;20206;-69
2021/12/18 08:14:30;;;;;;;7.93;3.92;;;7.50;99.90;;;;;;5038922;28;20293;-69
2021/12/18 08:16:58;;;;;;;9.35;5.00;;;7.50;99.90;;;;;;5039871;28;20221;-69
2021/12/18 08:19:26;;;;;;;7.13;3.63;;;7.50;99.90;;;;;;5039382;28;20304;-68
2021/12/18 08:21:54;;;;;;;5.85;3.17;;;7.50;99.90;;;;;;5039777;28;20774;-67
2021/12/18 08:24:22;;;;;;;5.65;3.63;;;7.50;99.90;;;;;;5038774;28;20459;-67
2021/12/18 08:26:50;;;;;;;4.00;2.08;;;7.40;99.90;;;;;;5039736;28;20702;-66
2021/12/18 08:29:18;;;;;;;3.03;2.15;;;7.40;99.90;;;;;;5038508;28;20205;-74
2021/12/18 08:31:51;;;;;;;2.38;1.58;;;7.40;99.90;;;;;;5039510;28;20295;-69
2021/12/18 08:34:20;;;;;;;2.65;2.00;;;7.40;99.90;;;;;;5039506;28;20206;-69
2021/12/18 08:36:49;;;;;;;2.70;1.80;;;7.40;99.90;;;;;;5040191;28;20202;-68
2021/12/18 08:39:18;;;;;;;1.75;1.52;;;7.50;99.90;;;;;;5047329;28;20249;-69
2021/12/18 08:41:46;;;;;;;1.10;1.10;;;7.50;99.90;;;;;;5044718;28;20295;-71
2021/12/18 08:44:15;;;;;;;0.55;0.47;;;7.50;99.90;;;;;;5045475;28;20309;-70
2021/12/18 08:46:43;;;;;;;0.60;0.60;;;7.50;99.90;;;;;;5041482;28;20714;-69
2021/12/18 08:49:12;;;;;;;0.70;0.70;;;7.50;99.90;;;;;;5053494;28;20296;-69
2021/12/18 08:51:40;;;;;;;0.60;0.60;;;7.50;99.90;;;;;;5061307;28;20201;-67
2021/12/18 08:54:09;;;;;;;0.60;0.40;;;7.50;99.90;;;;;;5059643;28;20189;-68
2021/12/18 08:56:37;;;;;;;0.43;0.43;;;7.60;99.90;;;;;;5060205;28;20259;-69
2021/12/18 08:59:05;;;;;;;1.00;0.90;;;7.50;99.90;;;;;;5058595;28;20292;-69
2021/12/18 09:01:33;;;;;;;1.15;0.60;;;7.50;99.90;;;;;;5058016;28;20215;-68
2021/12/18 09:04:06;;;;;;;2.58;0.98;;;7.60;99.90;;;;;;5058207;28;20221;-69
2021/12/18 09:06:35;;;;;;;1.88;1.13;;;7.60;99.90;;;;;;5058365;28;20252;-69
2021/12/18 09:09:03;;;;;;;1.00;1.00;;;7.60;99.90;;;;;;5058351;28;20300;-67
2021/12/18 09:11:31;;;;;;;0.90;0.90;;;7.70;99.90;;;;;;5058799;28;20197;-70
2021/12/18 09:13:59;;;;;;;1.10;0.73;;;7.60;99.90;;;;;;5058143;28;20197;-70
2021/12/18 09:16:27;;;;;;;1.17;1.08;;;7.60;99.90;;;;;;5057678;28;20225;-70
2021/12/18 09:18:55;;;;;;;0.63;0.57;;;7.60;99.90;;;;;;5042301;28;20872;-68
2021/12/18 09:21:23;;;;;;;0.40;0.30;;;7.70;99.90;;;;;;5038369;28;20335;-70
2021/12/18 09:23:52;;;;;;;0.63;0.63;;;7.60;99.90;;;;;;5037525;28;20221;-69
2021/12/18 09:26:21;;;;;;;0.73;0.55;;;7.60;99.90;;;;;;5037696;28;20213;-70
2021/12/18 09:28:49;;;;;;;4.32;2.00;;;7.60;99.90;;;;;;5038018;28;20288;-69
2021/12/18 09:31:17;;;;;;;0.80;0.77;;;7.50;99.90;;;;;;5037268;28;20669;-70
2021/12/18 09:33:48;;;;;;;0.82;0.77;;;7.50;99.90;;;;;;5037879;28;20277;-68
2021/12/18 09:36:16;;;;;;;1.05;0.88;;;7.50;99.90;;;;;;5037400;28;20952;-68
2021/12/18 09:38:44;;;;;;;2.45;0.60;;;7.50;99.90;;;;;;5034254;28;20857;-69
2021/12/18 09:41:14;;;;;;;2.13;1.92;;;7.60;99.90;;;;;;5036945;28;20193;-69
2021/12/18 09:43:42;;;;;;;0.77;0.65;;;7.70;99.90;;;;;;5037777;28;20217;-69
2021/12/18 09:46:12;;;;;;;0.40;0.38;;;7.70;99.90;;;;;;5037242;28;20229;-69
2021/12/18 09:48:43;;;;;;;1.00;0.70;;;7.80;99.90;;;;;;5037968;28;20206;-70
2021/12/18 09:51:22;;;;;;;1.40;0.90;;;7.80;99.90;;;;;;5037326;28;20237;-69
2021/12/18 09:53:52;;;;;;;1.40;0.80;;;7.80;99.90;;;;;;5037613;28;20195;-70
2021/12/18 09:56:24;;;;;;;0.80;0.73;;;7.80;99.90;;;;;;5037343;28;20224;-70
2021/12/18 09:58:52;;;;;;;1.25;1.25;;;7.80;99.90;;;;;;5037806;28;20197;-69
2021/12/18 10:01:20;;;;;;;2.45;2.25;;;7.80;99.90;;;;;;5036845;28;20200;-69
2021/12/18 10:03:51;;;;;;;3.47;1.50;;;7.80;99.90;;;;;;5037198;28;20219;-69
2021/12/18 10:06:33;;;;;;;2.38;1.65;;;7.80;99.90;;;;;;5037822;28;20252;-68
2021/12/18 10:09:01;;;;;;;6.65;2.58;;;7.80;99.90;;;;;;5037726;28;20281;-68
2021/12/18 10:11:31;;;;;;;3.80;3.17;;;7.80;99.90;;;;;;5036818;28;20289;-66
2021/12/18 10:14:02;;;;;;;3.97;3.00;;;7.90;99.90;;;;;;5036921;28;20190;-67
2021/12/18 10:16:31;;;;;;;6.35;3.83;;;7.90;99.90;;;;;;5036655;28;20233;-67
2021/12/18 10:19:00;;;;;;;5.55;4.10;;;7.90;99.90;;;;;;5037388;28;20839;-67
2021/12/18 10:21:30;;;;;;;4.80;3.40;;;7.90;99.90;;;;;;5036480;28;20582;-67
2021/12/18 10:24:14;;;;;;;6.45;4.47;;;7.90;99.90;;;;;;5036553;28;20220;-67
2021/12/18 10:26:45;;;;;;;6.40;5.35;;;8.00;99.90;;;;;;5035583;28;20204;-67
2021/12/18 10:29:33;;;;;;;9.70;5.55;;;8.00;99.90;;;;;;5034945;28;20426;-67
2021/12/18 10:32:06;;;;;;;10.82;6.00;;;8.00;99.90;;;;;;5033991;28;20277;-67
2021/12/18 10:34:34;;;;;;;7.93;6.22;;;8.10;99.90;;;;;;5037702;28;20197;-64
2021/12/18 10:37:20;;;;;;;12.93;6.93;;;8.20;99.90;;;;;;5036642;28;20332;-67
2021/12/18 10:40:01;;;;;;;14.45;5.97;;;8.10;99.90;;;;;;5036691;28;20198;-65
2021/12/18 10:42:33;;;;;;;16.23;7.35;;;8.20;99.90;;;;;;5034739;28;20210;-65
2021/12/18 10:45:19;;;;;;;16.00;7.53;;;8.20;99.90;;;;;;5036608;28;20229;-65
2021/12/18 10:47:50;;;;;;;10.93;6.15;;;8.20;99.90;;;;;;5036606;28;20276;-65
2021/12/18 10:50:25;;;;;;;13.20;7.50;;;8.30;99.90;;;;;;5037211;28;20749;-68
2021/12/18 10:52:58;;;;;;;12.00;6.45;;;8.40;99.90;;;;;;5037107;28;20190;-67
2021/12/18 10:55:35;;;;;;;16.90;7.05;;;8.40;99.90;;;;;;5040866;28;20213;-67
2021/12/18 10:58:06;;;;;;;14.15;6.78;;;8.50;99.90;;;;;;5040252;28;20202;-66
2021/12/18 11:00:40;;;;;;;17.40;7.00;;;8.60;99.90;;;;;;5037879;28;20828;-72
2021/12/18 11:03:25;;;;;;;9.10;6.20;;;8.70;99.90;;;;;;5040284;28;20186;-64
2021/12/18 11:06:14;;;;;;;11.00;6.75;;;8.80;99.90;;;;;;5037839;28;20221;-68
2021/12/18 11:08:59;;;;;;;15.65;7.50;;;8.90;99.90;;;;;;5037902;28;20292;-67
2021/12/18 11:14:29;;;;;;;17.17;6.82;;;8.90;99.90;;;;;;4979162;28;20226;-68
2021/12/18 11:16:59;;;;;;;14.50;6.32;;;9.00;99.90;;;;;;4981130;28;20451;-68
2021/12/18 11:19:30;;;;;;;10.65;6.57;;;9.00;99.90;;;;;;5008880;28;20206;-67
2021/12/18 11:22:02;;;;;;;10.48;7.95;;;9.00;99.90;;;;;;5041430;28;20207;-68
2021/12/18 11:24:34;;;;;;;22.45;7.78;;;9.00;99.90;;;;;;5040009;28;20217;-68
2021/12/18 11:27:06;;;;;;;19.67;6.60;;;9.10;99.90;;;;;;5040313;28;20922;-68
2021/12/18 11:29:44;;;;;;;13.07;6.22;;;9.20;99.90;;;;;;5040437;28;20198;-68
2021/12/18 11:32:15;;;;;;;8.82;6.28;;;9.20;99.90;;;;;;5040183;28;20205;-68
2021/12/18 11:34:44;;;;;;;12.60;7.32;;;9.20;99.90;;;;;;5039669;28;20309;-69
2021/12/18 11:37:14;;;;;;;14.40;6.22;;;9.20;99.90;;;;;;5039969;28;20305;-65
2021/12/18 11:39:44;;;;;;;13.90;5.85;;;9.20;99.90;;;;;;5039330;28;20229;-66
2021/12/18 11:42:13;;;;;;;13.57;6.20;;;9.20;99.90;;;;;;5039435;28;20807;-66
2021/12/18 11:44:44;;;;;;;11.13;6.22;;;9.20;99.90;;;;;;5039041;28;20228;-65
2021/12/18 11:47:33;;;;;;;17.25;5.70;;;9.20;99.90;;;;;;5039119;28;20200;-66
2021/12/18 11:50:05;;;;;;;11.93;5.43;;;9.30;99.90;;;;;;5037769;28;20563;-66
2021/12/18 11:52:59;;;;;;;14.07;6.05;;;9.30;99.90;;;;;;5039839;28;20201;-65
2021/12/18 11:55:30;;;;;;;11.65;5.63;;;9.30;99.90;;;;;;5038702;28;20826;-66
2021/12/18 11:58:00;;;;;;;7.95;4.75;;;9.40;99.90;;;;;;5036835;28;20257;-67
2021/12/18 12:00:39;;;;;;;9.77;4.82;;;9.40;99.90;;;;;;5039001;28;20193;-66
2021/12/18 12:03:09;;;;;;;19.13;6.90;;;9.40;99.90;;;;;;5038043;28;20193;-66
2021/12/18 12:05:41;;;;;;;8.73;4.30;;;9.30;99.90;;;;;;5037044;28;20252;-66
2021/12/18 12:08:38;;;;;;;10.38;5.30;;;9.40;99.90;;;;;;5038968;28;20208;-66
2021/12/18 12:11:25;;;;;;;11.02;5.40;;;9.40;99.90;;;;;;5037830;28;20198;-66
2021/12/18 12:14:19;;;;;;;7.25;4.35;;;9.40;99.90;;;;;;5037833;28;20806;-66
2021/12/18 12:17:12;;;;;;;15.93;6.78;;;9.40;99.90;;;;;;5037422;28;20721;-65
2021/12/18 12:19:49;;;;;;;15.23;5.28;;;9.40;99.90;;;;;;5036974;28;20205;-67
2021/12/18 12:22:53;;;;;;;14.05;4.53;;;9.40;99.90;;;;;;5036130;28;20809;-67
2021/12/18 12:25:47;;;;;;;12.38;4.55;;;9.40;99.90;;;;;;5036072;28;20266;-67
2021/12/18 12:28:18;;;;;;;12.25;6.35;;;9.40;99.90;;;;;;5038749;28;20197;-65
2021/12/18 12:30:49;;;;;;;14.85;6.05;;;9.40;99.90;;;;;;5038584;28;20702;-66
2021/12/18 12:33:28;;;;;;;13.57;5.05;;;9.40;99.90;;;;;;5035891;28;20752;-67
2021/12/18 12:36:10;;;;;;;9.95;5.15;;;9.50;99.90;;;;;;5036272;28;20296;-66
2021/12/18 12:38:53;;;;;;;9.52;5.70;;;9.50;99.90;;;;;;5036977;28;20203;-67
2021/12/18 12:41:36;;;;;;;11.98;4.88;;;9.60;99.90;;;;;;5039077;28;20282;-66
2021/12/18 12:44:14;;;;;;;16.55;6.00;;;9.60;99.90;;;;;;5038479;28;20686;-67
2021/12/18 12:46:44;;;;;;;11.50;5.03;;;9.70;99.90;;;;;;5039097;28;20609;-67
2021/12/18 12:49:16;;;;;;;8.38;4.00;;;9.70;99.90;;;;;;5038578;28;20854;-67
2021/12/18 12:52:05;;;;;;;11.27;5.85;;;9.70;99.90;;;;;;5038815;28;20263;-67
2021/12/18 12:54:57;;;;;;;6.45;4.45;;;9.80;99.90;;;;;;5038139;28;20227;-67
2021/12/18 12:57:37;;;;;;;10.93;4.43;;;9.80;99.90;;;;;;5038647;28;20259;-67
2021/12/18 13:00:37;;;;;;;14.55;4.70;;;9.80;99.90;;;;;;5039064;28;20206;-67
2021/12/18 13:03:13;;;;;;;13.82;4.93;;;9.80;99.90;;;;;;5040383;28;20262;-67
2021/12/18 13:05:48;;;;;;;14.40;4.25;;;9.90;99.90;;;;;;5039213;28;20248;-66
2021/12/18 13:08:17;;;;;;;17.90;5.65;;;9.90;99.90;;;;;;5038222;28;20201;-67
2021/12/18 13:10:47;;;;;;;11.98;4.07;;;9.80;99.90;;;;;;5039700;28;20198;-67
2021/12/18 13:13:18;;;;;;;11.98;4.97;;;9.80;99.90;;;;;;5037492;28;20205;-66
2021/12/18 13:15:55;;;;;;;18.30;4.57;;;9.80;99.90;;;;;;5036210;28;20221;-67
2021/12/18 13:18:26;;;;;;;16.95;4.72;;;9.70;99.90;;;;;;5022340;28;20208;-67
2021/12/18 13:20:58;;;;;;;10.30;4.85;;;9.70;99.90;;;;;;5037914;28;20185;-67
2021/12/18 13:23:55;;;;;;;11.70;4.50;;;9.60;99.90;;;;;;5037990;28;20197;-67
2021/12/18 13:26:30;;;;;;;14.13;6.18;;;9.60;99.90;;;;;;4989700;28;20221;-67
2021/12/18 13:29:02;;;;;;;15.65;5.60;;;9.60;99.90;;;;;;5038002;28;20781;-67
2021/12/18 13:31:33;;;;;;;8.85;4.75;;;9.50;99.90;;;;;;5037777;28;20208;-67
2021/12/18 13:34:05;;;;;;;12.80;4.53;;;9.40;99.90;;;;;;5038430;28;20208;-67
2021/12/18 13:36:46;;;;;;;11.55;4.85;;;9.40;99.90;;;;;;5038585;28;20222;-67
2021/12/18 13:39:17;;;;;;;17.88;5.55;;;9.20;99.90;;;;;;5038099;28;20212;-68
2021/12/18 13:42:00;;;;;;;11.02;4.43;;;9.20;99.90;;;;;;5038477;28;20208;-67